Terminal Aerodrome Forecast
Issued by NWS

Home | Current Version | Previous Version | Text Only | Print | Product List | Glossary On
Versions: 1 2 3 4 5 6 7 8 9 10 11 12 13 14 15 16 17 18 19 20 21 22 23 24 25 26 27 28 29 30 31 32 33 34
283
FTAK31 PANC 272322
TAFAVD
TAF
PAVD 272322Z 2800/2824 07003KT 1/2SM -SN FG VV002
      TEMPO 2800/2804 1SM -SN SCT002 OVC012
     FM280600 VRB03KT 1 1/2SM -SN VV003
     FM281200 VRB03KT 3SM -SN SCT006 BKN015 OVC030
     FM281800 VRB03KT 1/2SM -SN FG VV002=

USA.gov is the U.S. government's official web portal to all federal, state and local government web resources and services.